sensor_id;sensor_type;location;lat;lon;timestamp;pressure;altitude;pressure_sealevel;temperature;humidity
16690;BME280;8458;52.220;9.884;2022-11-28T00:02:09;100734.13;;;7.21;73.11
16690;BME280;8458;52.220;9.884;2022-11-28T00:04:36;100721.25;;;7.26;73.28
16690;BME280;8458;52.220;9.884;2022-11-28T00:07:02;100710.22;;;7.26;74.09
16690;BME280;8458;52.220;9.884;2022-11-28T00:09:30;100721.25;;;7.26;74.39
16690;BME280;8458;52.220;9.884;2022-11-28T00:11:56;100723.28;;;7.31;73.71
16690;BME280;8458;52.220;9.884;2022-11-28T00:14:23;100709.88;;;7.34;73.16
16690;BME280;8458;52.220;9.884;2022-11-28T00:16:49;100713.06;;;7.43;72.54
16690;BME280;8458;52.220;9.884;2022-11-28T00:19:16;100709.97;;;7.40;72.99
16690;BME280;8458;52.220;9.884;2022-11-28T00:21:42;100722.09;;;7.39;72.50
16690;BME280;8458;52.220;9.884;2022-11-28T00:24:09;100725.13;;;7.25;72.56
16690;BME280;8458;52.220;9.884;2022-11-28T00:26:38;100716.94;;;7.30;72.96
16690;BME280;8458;52.220;9.884;2022-11-28T00:29:06;100721.53;;;7.13;73.72
16690;BME280;8458;52.220;9.884;2022-11-28T00:31:35;100723.66;;;7.11;72.66
16690;BME280;8458;52.220;9.884;2022-11-28T00:34:06;100720.09;;;7.10;72.55
16690;BME280;8458;52.220;9.884;2022-11-28T00:36:33;100711.47;;;7.07;73.12
16690;BME280;8458;52.220;9.884;2022-11-28T00:38:59;100729.81;;;7.01;72.26
16690;BME280;8458;52.220;9.884;2022-11-28T00:41:27;100715.28;;;7.06;72.32
16690;BME280;8458;52.220;9.884;2022-11-28T00:43:56;100715.06;;;7.07;72.51
16690;BME280;8458;52.220;9.884;2022-11-28T00:46:23;100700.66;;;7.17;71.16
16690;BME280;8458;52.220;9.884;2022-11-28T00:48:50;100693.56;;;7.21;71.09
16690;BME280;8458;52.220;9.884;2022-11-28T00:51:19;100692.03;;;7.25;71.04
16690;BME280;8458;52.220;9.884;2022-11-28T00:53:47;100700.66;;;7.17;71.99
16690;BME280;8458;52.220;9.884;2022-11-28T00:56:16;100705.34;;;7.16;71.68
16690;BME280;8458;52.220;9.884;2022-11-28T00:58:43;100682.22;;;7.06;70.92
16690;BME280;8458;52.220;9.884;2022-11-28T01:01:12;100664.22;;;7.15;70.32
16690;BME280;8458;52.220;9.884;2022-11-28T01:03:40;100655.22;;;7.20;71.14
16690;BME280;8458;52.220;9.884;2022-11-28T01:06:08;100667.56;;;7.17;71.37
16690;BME280;8458;52.220;9.884;2022-11-28T01:08:35;100658.84;;;7.08;70.20
16690;BME280;8458;52.220;9.884;2022-11-28T01:11:03;100670.00;;;6.90;70.85
16690;BME280;8458;52.220;9.884;2022-11-28T01:13:30;100671.41;;;6.92;71.07
16690;BME280;8458;52.220;9.884;2022-11-28T01:15:56;100658.94;;;7.02;71.22
16690;BME280;8458;52.220;9.884;2022-11-28T01:18:24;100634.25;;;7.07;70.20
16690;BME280;8458;52.220;9.884;2022-11-28T01:20:51;100633.16;;;7.08;70.18
16690;BME280;8458;52.220;9.884;2022-11-28T01:23:17;100647.91;;;7.13;70.50
16690;BME280;8458;52.220;9.884;2022-11-28T01:25:44;100663.72;;;7.06;71.14
16690;BME280;8458;52.220;9.884;2022-11-28T01:28:10;100659.66;;;7.09;70.03
16690;BME280;8458;52.220;9.884;2022-11-28T01:30:37;100669.00;;;7.08;70.19
16690;BME280;8458;52.220;9.884;2022-11-28T01:33:04;100658.47;;;7.05;70.13
16690;BME280;8458;52.220;9.884;2022-11-28T01:35:31;100642.16;;;7.15;70.20
16690;BME280;8458;52.220;9.884;2022-11-28T01:37:58;100629.56;;;7.19;69.56
16690;BME280;8458;52.220;9.884;2022-11-28T01:40:24;100624.97;;;7.25;68.99
16690;BME280;8458;52.220;9.884;2022-11-28T01:42:51;100619.94;;;7.22;69.47
16690;BME280;8458;52.220;9.884;2022-11-28T01:45:20;100637.59;;;7.09;70.08
16690;BME280;8458;52.220;9.884;2022-11-28T01:47:49;100641.47;;;6.96;69.91
16690;BME280;8458;52.220;9.884;2022-11-28T01:50:17;100634.50;;;6.93;70.62
16690;BME280;8458;52.220;9.884;2022-11-28T01:52:48;100616.53;;;7.03;70.60
16690;BME280;8458;52.220;9.884;2022-11-28T01:55:18;100602.72;;;7.03;69.69
16690;BME280;8458;52.220;9.884;2022-11-28T01:57:46;100601.66;;;7.04;70.83
16690;BME280;8458;52.220;9.884;2022-11-28T02:00:15;100621.31;;;6.95;71.76
16690;BME280;8458;52.220;9.884;2022-11-28T02:02:45;100630.69;;;6.94;72.44
16690;BME280;8458;52.220;9.884;2022-11-28T02:05:15;100599.16;;;7.02;71.94
16690;BME280;8458;52.220;9.884;2022-11-28T02:07:42;100586.59;;;6.94;71.54
16690;BME280;8458;52.220;9.884;2022-11-28T02:10:14;100580.59;;;6.97;71.69
16690;BME280;8458;52.220;9.884;2022-11-28T02:13:02;100578.19;;;6.89;71.69
16690;BME280;8458;52.220;9.884;2022-11-28T02:15:47;100573.06;;;6.81;71.24
16690;BME280;8458;52.220;9.884;2022-11-28T02:18:27;100566.47;;;6.82;71.41
16690;BME280;8458;52.220;9.884;2022-11-28T02:21:04;100545.09;;;6.89;70.54
16690;BME280;8458;52.220;9.884;2022-11-28T02:24:08;100500.72;;;7.03;70.39
16690;BME280;8458;52.220;9.884;2022-11-28T02:26:55;100508.41;;;7.00;70.39
16690;BME280;8458;52.220;9.884;2022-11-28T02:29:54;100522.69;;;6.97;71.00
16690;BME280;8458;52.220;9.884;2022-11-28T02:32:35;100511.91;;;6.96;70.06
16690;BME280;8458;52.220;9.884;2022-11-28T02:35:09;100524.84;;;6.95;69.60
16690;BME280;8458;52.220;9.884;2022-11-28T02:37:43;100554.09;;;6.96;70.21
16690;BME280;8458;52.220;9.884;2022-11-28T02:40:20;100580.44;;;6.92;69.42
16690;BME280;8458;52.220;9.884;2022-11-28T02:42:53;100603.59;;;6.91;69.62
16690;BME280;8458;52.220;9.884;2022-11-28T02:45:28;100574.22;;;6.97;69.37
16690;BME280;8458;52.220;9.884;2022-11-28T02:48:02;100576.22;;;7.02;69.26
16690;BME280;8458;52.220;9.884;2022-11-28T02:50:31;100581.75;;;7.02;69.31
16690;BME280;8458;52.220;9.884;2022-11-28T02:53:04;100574.09;;;7.04;69.38
16690;BME280;8458;52.220;9.884;2022-11-28T02:55:31;100572.41;;;7.03;69.79
16690;BME280;8458;52.220;9.884;2022-11-28T02:57:58;100566.41;;;7.06;69.86
16690;BME280;8458;52.220;9.884;2022-11-28T03:00:27;100570.72;;;7.02;71.17
16690;BME280;8458;52.220;9.884;2022-11-28T03:03:09;100559.09;;;6.99;71.11
16690;BME280;8458;52.220;9.884;2022-11-28T03:05:42;100549.78;;;7.00;71.46
16690;BME280;8458;52.220;9.884;2022-11-28T03:08:22;100534.56;;;6.86;71.82
16690;BME280;8458;52.220;9.884;2022-11-28T03:10:58;100541.19;;;6.73;71.60
16690;BME280;8458;52.220;9.884;2022-11-28T03:13:37;100540.59;;;6.71;71.07
16690;BME280;8458;52.220;9.884;2022-11-28T03:16:13;100542.88;;;6.74;71.08
16690;BME280;8458;52.220;9.884;2022-11-28T03:18:51;100528.25;;;6.74;70.74
16690;BME280;8458;52.220;9.884;2022-11-28T03:21:24;100525.72;;;6.84;70.47
16690;BME280;8458;52.220;9.884;2022-11-28T03:23:58;100521.66;;;6.75;70.31
16690;BME280;8458;52.220;9.884;2022-11-28T03:26:28;100518.31;;;6.73;70.08
16690;BME280;8458;52.220;9.884;2022-11-28T03:29:00;100514.59;;;6.67;69.93
16690;BME280;8458;52.220;9.884;2022-11-28T03:31:32;100504.06;;;6.76;69.14
16690;BME280;8458;52.220;9.884;2022-11-28T03:34:03;100496.16;;;6.68;69.84
16690;BME280;8458;52.220;9.884;2022-11-28T03:36:34;100495.91;;;6.69;70.01
16690;BME280;8458;52.220;9.884;2022-11-28T03:39:07;100500.59;;;6.69;69.40
16690;BME280;8458;52.220;9.884;2022-11-28T03:41:38;100492.56;;;6.67;69.53
16690;BME280;8458;52.220;9.884;2022-11-28T03:44:09;100491.97;;;6.65;69.51
16690;BME280;8458;52.220;9.884;2022-11-28T03:46:40;100503.25;;;6.63;69.17
16690;BME280;8458;52.220;9.884;2022-11-28T03:49:12;100498.22;;;6.60;69.18
16690;BME280;8458;52.220;9.884;2022-11-28T03:51:44;100498.22;;;6.60;69.19
16690;BME280;8458;52.220;9.884;2022-11-28T03:54:14;100497.59;;;6.70;69.46
16690;BME280;8458;52.220;9.884;2022-11-28T03:56:48;100488.97;;;6.67;69.46
16690;BME280;8458;52.220;9.884;2022-11-28T03:59:21;100503.59;;;6.67;69.06
16690;BME280;8458;52.220;9.884;2022-11-28T04:01:54;100486.22;;;6.67;69.00
16690;BME280;8458;52.220;9.884;2022-11-28T04:04:28;100482.97;;;6.70;68.97
16690;BME280;8458;52.220;9.884;2022-11-28T04:07:01;100485.25;;;6.73;68.98
16690;BME280;8458;52.220;9.884;2022-11-28T04:09:37;100499.41;;;6.64;69.09
16690;BME280;8458;52.220;9.884;2022-11-28T04:12:08;100493.41;;;6.68;69.73
16690;BME280;8458;52.220;9.884;2022-11-28T04:14:38;100495.66;;;6.71;69.33
16690;BME280;8458;52.220;9.884;2022-11-28T04:17:11;100491.25;;;6.70;69.41
16690;BME280;8458;52.220;9.884;2022-11-28T04:19:45;100488.59;;;6.75;69.74
16690;BME280;8458;52.220;9.884;2022-11-28T04:22:16;100489.66;;;6.74;69.12
16690;BME280;8458;52.220;9.884;2022-11-28T04:24:47;100499.47;;;6.81;69.32
16690;BME280;8458;52.220;9.884;2022-11-28T04:27:18;100496.13;;;6.79;69.20
16690;BME280;8458;52.220;9.884;2022-11-28T04:29:50;100498.63;;;6.81;68.75
16690;BME280;8458;52.220;9.884;2022-11-28T04:32:18;100498.50;;;6.88;68.48
16690;BME280;8458;52.220;9.884;2022-11-28T04:34:50;100496.09;;;6.91;67.95
16690;BME280;8458;52.220;9.884;2022-11-28T04:37:18;100490.34;;;6.93;68.29
16690;BME280;8458;52.220;9.884;2022-11-28T04:39:47;100495.31;;;6.79;68.39
16690;BME280;8458;52.220;9.884;2022-11-28T04:42:17;100486.53;;;6.82;68.33
16690;BME280;8458;52.220;9.884;2022-11-28T04:44:49;100473.75;;;6.76;68.60
16690;BME280;8458;52.220;9.884;2022-11-28T04:47:18;100473.75;;;6.76;68.59
16690;BME280;8458;52.220;9.884;2022-11-28T04:49:45;100469.31;;;6.75;68.88
16690;BME280;8458;52.220;9.884;2022-11-28T04:52:15;100465.72;;;6.74;69.23
16690;BME280;8458;52.220;9.884;2022-11-28T04:54:51;100467.88;;;6.72;68.75
16690;BME280;8458;52.220;9.884;2022-11-28T04:57:23;100468.50;;;6.62;69.17
16690;BME280;8458;52.220;9.884;2022-11-28T04:59:52;100466.13;;;6.54;69.45
16690;BME280;8458;52.220;9.884;2022-11-28T05:02:20;100462.78;;;6.52;70.04
16690;BME280;8458;52.220;9.884;2022-11-28T05:04:49;100463.63;;;6.53;69.98
16690;BME280;8458;52.220;9.884;2022-11-28T05:07:18;100463.47;;;6.59;69.51
16690;BME280;8458;52.220;9.884;2022-11-28T05:09:45;100460.13;;;6.57;69.04
16690;BME280;8458;52.220;9.884;2022-11-28T05:12:12;100459.56;;;6.55;68.59
16690;BME280;8458;52.220;9.884;2022-11-28T05:14:39;100460.53;;;6.49;68.95
16690;BME280;8458;52.220;9.884;2022-11-28T05:17:05;100464.94;;;6.50;69.15
16690;BME280;8458;52.220;9.884;2022-11-28T05:19:32;100463.97;;;6.56;68.99
16690;BME280;8458;52.220;9.884;2022-11-28T05:21:59;100462.31;;;6.55;69.17
16690;BME280;8458;52.220;9.884;2022-11-28T05:24:26;100452.78;;;6.63;69.04
16690;BME280;8458;52.220;9.884;2022-11-28T05:26:53;100445.97;;;6.66;69.09
16690;BME280;8458;52.220;9.884;2022-11-28T05:29:19;100458.19;;;6.70;68.38
16690;BME280;8458;52.220;9.884;2022-11-28T05:31:46;100461.56;;;6.60;68.44
16690;BME280;8458;52.220;9.884;2022-11-28T05:34:12;100453.50;;;6.70;68.00
16690;BME280;8458;52.220;9.884;2022-11-28T05:36:39;100450.91;;;6.63;68.11
16690;BME280;8458;52.220;9.884;2022-11-28T05:39:05;100458.59;;;6.50;68.05
16690;BME280;8458;52.220;9.884;2022-11-28T05:41:33;100466.81;;;6.61;68.42
16690;BME280;8458;52.220;9.884;2022-11-28T05:44:00;100466.13;;;6.54;68.34
16690;BME280;8458;52.220;9.884;2022-11-28T05:46:27;100467.44;;;6.52;68.72
16690;BME280;8458;52.220;9.884;2022-11-28T05:48:55;100472.97;;;6.52;68.59
16690;BME280;8458;52.220;9.884;2022-11-28T05:51:21;100459.91;;;6.47;68.45
16690;BME280;8458;52.220;9.884;2022-11-28T05:53:48;100446.13;;;6.47;68.58
16690;BME280;8458;52.220;9.884;2022-11-28T05:56:16;100443.28;;;6.42;68.45
16690;BME280;8458;52.220;9.884;2022-11-28T05:58:45;100451.56;;;6.42;68.74
16690;BME280;8458;52.220;9.884;2022-11-28T06:01:12;100445.56;;;6.33;69.35
16690;BME280;8458;52.220;9.884;2022-11-28T06:03:39;100450.34;;;6.38;68.92
16690;BME280;8458;52.220;9.884;2022-11-28T06:06:11;100445.34;;;6.35;69.55
16690;BME280;8458;52.220;9.884;2022-11-28T06:08:38;100441.75;;;6.22;68.95
16690;BME280;8458;52.220;9.884;2022-11-28T06:11:05;100442.84;;;6.21;68.97
16690;BME280;8458;52.220;9.884;2022-11-28T06:13:32;100436.25;;;6.22;69.15
16690;BME280;8458;52.220;9.884;2022-11-28T06:15:59;100441.28;;;6.25;68.98
16690;BME280;8458;52.220;9.884;2022-11-28T06:18:26;100443.78;;;6.27;68.29
16690;BME280;8458;52.220;9.884;2022-11-28T06:20:52;100447.84;;;6.36;68.31
16690;BME280;8458;52.220;9.884;2022-11-28T06:23:19;100452.53;;;6.36;68.42
16690;BME280;8458;52.220;9.884;2022-11-28T06:25:45;100441.84;;;6.39;68.94
16690;BME280;8458;52.220;9.884;2022-11-28T06:28:12;100442.00;;;6.33;68.26
16690;BME280;8458;52.220;9.884;2022-11-28T06:30:38;100439.34;;;6.38;68.39
16690;BME280;8458;52.220;9.884;2022-11-28T06:33:09;100443.53;;;6.40;68.07
16690;BME280;8458;52.220;9.884;2022-11-28T06:35:35;100433.25;;;6.36;68.36
16690;BME280;8458;52.220;9.884;2022-11-28T06:38:02;100440.78;;;6.28;68.46
16690;BME280;8458;52.220;9.884;2022-11-28T06:40:28;100435.28;;;6.28;68.68
16690;BME280;8458;52.220;9.884;2022-11-28T06:42:55;100436.88;;;6.24;69.52
16690;BME280;8458;52.220;9.884;2022-11-28T06:45:21;100433.88;;;6.14;69.19
16690;BME280;8458;52.220;9.884;2022-11-28T06:47:47;100444.75;;;6.21;69.06
16690;BME280;8458;52.220;9.884;2022-11-28T06:50:15;100441.88;;;6.27;68.84
16690;BME280;8458;52.220;9.884;2022-11-28T06:52:42;100455.19;;;6.31;68.66
16690;BME280;8458;52.220;9.884;2022-11-28T06:55:08;100466.53;;;6.34;68.85
16690;BME280;8458;52.220;9.884;2022-11-28T06:57:35;100469.75;;;6.43;68.56
16690;BME280;8458;52.220;9.884;2022-11-28T07:00:03;100466.19;;;6.31;69.27
16690;BME280;8458;52.220;9.884;2022-11-28T07:02:31;100458.75;;;6.19;69.75
16690;BME280;8458;52.220;9.884;2022-11-28T07:04:57;100465.59;;;6.17;69.85
16690;BME280;8458;52.220;9.884;2022-11-28T07:07:25;100460.59;;;6.14;70.10
16690;BME280;8458;52.220;9.884;2022-11-28T07:09:51;100459.25;;;6.16;70.41
16690;BME280;8458;52.220;9.884;2022-11-28T07:12:18;100462.72;;;6.12;70.40
16690;BME280;8458;52.220;9.884;2022-11-28T07:14:45;100462.25;;;6.15;70.83
16690;BME280;8458;52.220;9.884;2022-11-28T07:17:11;100462.72;;;6.12;70.37
16690;BME280;8458;52.220;9.884;2022-11-28T07:19:38;100455.91;;;6.14;70.89
16690;BME280;8458;52.220;9.884;2022-11-28T07:22:04;100458.91;;;6.24;70.69
16690;BME280;8458;52.220;9.884;2022-11-28T07:24:32;100460.19;;;6.34;70.59
16690;BME280;8458;52.220;9.884;2022-11-28T07:26:58;100465.41;;;6.47;70.22
16690;BME280;8458;52.220;9.884;2022-11-28T07:29:25;100467.81;;;6.55;70.07
16690;BME280;8458;52.220;9.884;2022-11-28T07:31:55;100469.13;;;6.53;69.91
16690;BME280;8458;52.220;9.884;2022-11-28T07:34:22;100465.41;;;6.47;69.93
16690;BME280;8458;52.220;9.884;2022-11-28T07:36:48;100471.91;;;6.41;70.18
16690;BME280;8458;52.220;9.884;2022-11-28T07:39:15;100480.66;;;6.38;70.43
16690;BME280;8458;52.220;9.884;2022-11-28T07:41:43;100471.56;;;6.37;70.01
16690;BME280;8458;52.220;9.884;2022-11-28T07:44:11;100480.28;;;6.46;70.31
16690;BME280;8458;52.220;9.884;2022-11-28T07:46:42;100472.84;;;6.58;72.42
16690;BME280;8458;52.220;9.884;2022-11-28T07:49:08;100479.75;;;6.73;71.89
16690;BME280;8458;52.220;9.884;2022-11-28T07:51:35;100474.06;;;6.79;70.74
16690;BME280;8458;52.220;9.884;2022-11-28T07:54:02;100478.75;;;6.79;70.52
16690;BME280;8458;52.220;9.884;2022-11-28T07:56:31;100479.84;;;6.78;71.74
16690;BME280;8458;52.220;9.884;2022-11-28T07:58:59;100493.41;;;6.68;74.71
16690;BME280;8458;52.220;9.884;2022-11-28T08:01:28;100483.50;;;6.55;76.65
16690;BME280;8458;52.220;9.884;2022-11-28T08:03:56;100488.75;;;6.56;76.64
16690;BME280;8458;52.220;9.884;2022-11-28T08:06:25;100484.53;;;6.66;76.06
16690;BME280;8458;52.220;9.884;2022-11-28T08:08:53;100487.88;;;6.68;76.61
16690;BME280;8458;52.220;9.884;2022-11-28T08:11:21;100475.78;;;6.69;77.26
16690;BME280;8458;52.220;9.884;2022-11-28T08:13:48;100463.94;;;6.68;77.23
16690;BME280;8458;52.220;9.884;2022-11-28T08:16:18;100470.66;;;6.60;78.24
16690;BME280;8458;52.220;9.884;2022-11-28T08:18:46;100470.19;;;6.63;78.01
16690;BME280;8458;52.220;9.884;2022-11-28T08:21:14;100474.16;;;6.56;78.32
16690;BME280;8458;52.220;9.884;2022-11-28T08:23:42;100470.19;;;6.63;78.09
16690;BME280;8458;52.220;9.884;2022-11-28T08:26:11;100476.75;;;6.62;77.51
16690;BME280;8458;52.220;9.884;2022-11-28T08:28:38;100472.22;;;6.56;77.67
16690;BME280;8458;52.220;9.884;2022-11-28T08:31:08;100480.59;;;6.61;77.32
16690;BME280;8458;52.220;9.884;2022-11-28T08:33:36;100470.19;;;6.63;76.79
16690;BME280;8458;52.220;9.884;2022-11-28T08:36:03;100455.56;;;6.63;76.81
16690;BME280;8458;52.220;9.884;2022-11-28T08:38:30;100463.81;;;6.63;77.63
16690;BME280;8458;52.220;9.884;2022-11-28T08:40:59;100465.16;;;6.60;77.76
16690;BME280;8458;52.220;9.884;2022-11-28T08:43:26;100461.81;;;6.58;77.26
16690;BME280;8458;52.220;9.884;2022-11-28T08:45:53;100471.50;;;6.61;76.81
16690;BME280;8458;52.220;9.884;2022-11-28T08:48:19;100468.16;;;6.59;75.73
16690;BME280;8458;52.220;9.884;2022-11-28T08:50:48;100464.53;;;6.70;78.36
16690;BME280;8458;52.220;9.884;2022-11-28T08:53:15;100463.28;;;6.90;79.75
16690;BME280;8458;52.220;9.884;2022-11-28T08:55:41;100473.66;;;6.99;76.83
16690;BME280;8458;52.220;9.884;2022-11-28T08:58:09;100474.03;;;7.20;76.96
16690;BME280;8458;52.220;9.884;2022-11-28T09:00:35;100476.25;;;7.52;76.00
16690;BME280;8458;52.220;9.884;2022-11-28T09:03:02;100482.97;;;7.90;74.39
16690;BME280;8458;52.220;9.884;2022-11-28T09:05:29;100475.56;;;8.13;72.27
16690;BME280;8458;52.220;9.884;2022-11-28T09:07:57;100475.94;;;8.38;70.98
16690;BME280;8458;52.220;9.884;2022-11-28T09:10:24;100474.16;;;8.49;68.86
16690;BME280;8458;52.220;9.884;2022-11-28T09:12:50;100471.34;;;8.66;69.17
16690;BME280;8458;52.220;9.884;2022-11-28T09:15:17;100470.16;;;8.84;67.65
16690;BME280;8458;52.220;9.884;2022-11-28T09:17:44;100463.84;;;8.89;67.19
16690;BME280;8458;52.220;9.884;2022-11-28T09:20:11;100469.56;;;9.04;66.89
16690;BME280;8458;52.220;9.884;2022-11-28T09:22:37;100481.16;;;9.01;66.23
16690;BME280;8458;52.220;9.884;2022-11-28T09:25:07;100470.09;;;9.01;66.19
16690;BME280;8458;52.220;9.884;2022-11-28T09:27:34;100474.31;;;9.09;65.99
16690;BME280;8458;52.220;9.884;2022-11-28T09:30:00;100471.97;;;9.23;65.37
16690;BME280;8458;52.220;9.884;2022-11-28T09:32:27;100468.09;;;9.19;65.63
16690;BME280;8458;52.220;9.884;2022-11-28T09:34:53;100465.06;;;8.98;64.75
16690;BME280;8458;52.220;9.884;2022-11-28T09:37:19;100464.94;;;9.10;65.65
16690;BME280;8458;52.220;9.884;2022-11-28T09:39:46;100468.84;;;9.14;65.17
16690;BME280;8458;52.220;9.884;2022-11-28T09:42:17;100462.63;;;9.02;65.02
16690;BME280;8458;52.220;9.884;2022-11-28T09:44:48;100468.78;;;9.09;65.08
16690;BME280;8458;52.220;9.884;2022-11-28T09:47:20;100462.03;;;9.22;64.64
16690;BME280;8458;52.220;9.884;2022-11-28T09:49:51;100471.72;;;9.24;64.34
16690;BME280;8458;52.220;9.884;2022-11-28T09:52:25;100469.25;;;9.28;64.32
16690;BME280;8458;52.220;9.884;2022-11-28T09:55:00;100471.66;;;9.19;64.41
16690;BME280;8458;52.220;9.884;2022-11-28T09:57:33;100459.97;;;9.39;64.12
16690;BME280;8458;52.220;9.884;2022-11-28T10:00:01;100461.00;;;9.33;64.14
16690;BME280;8458;52.220;9.884;2022-11-28T10:02:31;100461.13;;;9.16;63.85
16690;BME280;8458;52.220;9.884;2022-11-28T10:05:07;100453.50;;;9.01;63.61
16690;BME280;8458;52.220;9.884;2022-11-28T10:07:42;100458.06;;;9.12;63.84
16690;BME280;8458;52.220;9.884;2022-11-28T10:10:19;100461.91;;;9.11;63.76
16690;BME280;8458;52.220;9.884;2022-11-28T10:12:57;100452.75;;;8.84;64.40
16690;BME280;8458;52.220;9.884;2022-11-28T10:15:39;100464.72;;;8.67;64.71
16690;BME280;8458;52.220;9.884;2022-11-28T10:18:21;100461.41;;;8.26;65.88
16690;BME280;8458;52.220;9.884;2022-11-28T10:20:55;100458.06;;;8.07;66.88
16690;BME280;8458;52.220;9.884;2022-11-28T10:23:28;100467.09;;;8.02;67.46
16690;BME280;8458;52.220;9.884;2022-11-28T10:26:00;100462.97;;;7.83;67.56
16690;BME280;8458;52.220;9.884;2022-11-28T10:28:31;100455.63;;;7.54;67.94
16690;BME280;8458;52.220;9.884;2022-11-28T10:31:03;100460.69;;;7.46;69.90
16690;BME280;8458;52.220;9.884;2022-11-28T10:33:35;100447.47;;;7.48;69.74
16690;BME280;8458;52.220;9.884;2022-11-28T10:36:05;100449.16;;;7.49;70.08
16690;BME280;8458;52.220;9.884;2022-11-28T10:38:33;100454.09;;;7.47;69.44
16690;BME280;8458;52.220;9.884;2022-11-28T10:41:06;100453.50;;;7.45;70.91
16690;BME280;8458;52.220;9.884;2022-11-28T10:43:43;100452.00;;;7.54;71.39
16690;BME280;8458;52.220;9.884;2022-11-28T10:46:38;100452.34;;;7.58;70.94
16690;BME280;8458;52.220;9.884;2022-11-28T10:49:19;100449.16;;;7.49;72.14
16690;BME280;8458;52.220;9.884;2022-11-28T10:51:53;100449.75;;;7.51;72.18
16690;BME280;8458;52.220;9.884;2022-11-28T10:54:30;100446.81;;;7.41;71.86
16690;BME280;8458;52.220;9.884;2022-11-28T10:57:08;100441.97;;;7.48;74.88
16690;BME280;8458;52.220;9.884;2022-11-28T10:59:48;100441.97;;;7.48;74.83
16690;BME280;8458;52.220;9.884;2022-11-28T11:02:30;100447.16;;;7.61;73.78
16690;BME280;8458;52.220;9.884;2022-11-28T11:04:58;100443.41;;;7.67;72.23
16690;BME280;8458;52.220;9.884;2022-11-28T11:07:27;100452.34;;;7.75;71.53
16690;BME280;8458;52.220;9.884;2022-11-28T11:09:55;100435.28;;;7.78;71.58
16690;BME280;8458;52.220;9.884;2022-11-28T11:12:25;100430.84;;;7.77;70.77
16690;BME280;8458;52.220;9.884;2022-11-28T11:14:55;100424.75;;;7.75;70.47
16690;BME280;8458;52.220;9.884;2022-11-28T11:17:27;100439.31;;;7.70;70.74
16690;BME280;8458;52.220;9.884;2022-11-28T11:19:57;100431.41;;;7.79;71.68
16690;BME280;8458;52.220;9.884;2022-11-28T11:22:25;100439.81;;;7.84;72.82
16690;BME280;8458;52.220;9.884;2022-11-28T11:25:05;100433.28;;;7.90;72.13
16690;BME280;8458;52.220;9.884;2022-11-28T11:27:34;100441.56;;;7.90;70.72
16690;BME280;8458;52.220;9.884;2022-11-28T11:30:17;100437.75;;;7.96;71.60
16690;BME280;8458;52.220;9.884;2022-11-28T11:32:45;100435.09;;;8.01;72.20
16690;BME280;8458;52.220;9.884;2022-11-28T11:35:16;100442.38;;;7.90;69.77
16690;BME280;8458;52.220;9.884;2022-11-28T11:37:45;100431.78;;;7.82;69.38
16690;BME280;8458;52.220;9.884;2022-11-28T11:40:21;100433.44;;;7.66;69.83
16690;BME280;8458;52.220;9.884;2022-11-28T11:42:52;100428.78;;;7.50;70.00
16690;BME280;8458;52.220;9.884;2022-11-28T11:45:26;100426.59;;;7.52;70.77
16690;BME280;8458;52.220;9.884;2022-11-28T11:47:53;100434.19;;;7.45;70.50
16690;BME280;8458;52.220;9.884;2022-11-28T11:50:22;100436.94;;;7.45;70.36
16690;BME280;8458;52.220;9.884;2022-11-28T11:53:03;100413.72;;;7.41;71.19
16690;BME280;8458;52.220;9.884;2022-11-28T11:55:36;100421.75;;;7.42;71.65
16690;BME280;8458;52.220;9.884;2022-11-28T11:58:05;100411.88;;;7.46;71.30
16690;BME280;8458;52.220;9.884;2022-11-28T12:00:38;100417.13;;;7.48;70.99
16690;BME280;8458;52.220;9.884;2022-11-28T12:03:12;100423.16;;;7.45;71.27
16690;BME280;8458;52.220;9.884;2022-11-28T12:05:47;100419.31;;;7.46;71.35
16690;BME280;8458;52.220;9.884;2022-11-28T12:08:19;100415.72;;;7.45;71.49
16690;BME280;8458;52.220;9.884;2022-11-28T12:10:52;100420.75;;;7.48;71.36
16690;BME280;8458;52.220;9.884;2022-11-28T12:13:22;100418.88;;;7.54;71.77
16690;BME280;8458;52.220;9.884;2022-11-28T12:15:57;100421.06;;;7.52;71.29
16690;BME280;8458;52.220;9.884;2022-11-28T12:18:32;100427.28;;;7.59;71.64
16690;BME280;8458;52.220;9.884;2022-11-28T12:21:10;100427.91;;;7.66;71.97
16690;BME280;8458;52.220;9.884;2022-11-28T12:23:55;100421.31;;;7.67;72.06
16690;BME280;8458;52.220;9.884;2022-11-28T12:26:32;100435.63;;;7.64;71.87
16690;BME280;8458;52.220;9.884;2022-11-28T12:29:11;100426.59;;;7.69;71.47
16690;BME280;8458;52.220;9.884;2022-11-28T12:31:48;100421.38;;;7.72;71.69
16690;BME280;8458;52.220;9.884;2022-11-28T12:34:27;100424.25;;;7.78;71.61
16690;BME280;8458;52.220;9.884;2022-11-28T12:37:04;100414.03;;;7.78;71.47
16690;BME280;8458;52.220;9.884;2022-11-28T12:39:41;100410.50;;;7.83;71.92
16690;BME280;8458;52.220;9.884;2022-11-28T12:42:26;100421.56;;;7.83;71.64
16690;BME280;8458;52.220;9.884;2022-11-28T12:45:11;100407.50;;;7.84;71.73
16690;BME280;8458;52.220;9.884;2022-11-28T12:47:46;100415.75;;;8.01;75.88
16690;BME280;8458;52.220;9.884;2022-11-28T12:50:26;100420.59;;;8.33;75.72
16690;BME280;8458;52.220;9.884;2022-11-28T12:53:04;100414.88;;;8.40;73.54
16690;BME280;8458;52.220;9.884;2022-11-28T12:55:42;100420.03;;;8.53;72.46
16690;BME280;8458;52.220;9.884;2022-11-28T12:58:14;100414.94;;;8.67;73.13
16690;BME280;8458;52.220;9.884;2022-11-28T13:00:50;100413.41;;;8.76;72.37
16690;BME280;8458;52.220;9.884;2022-11-28T13:03:30;100415.13;;;8.83;71.55
16690;BME280;8458;52.220;9.884;2022-11-28T13:06:09;100408.00;;;8.87;70.64
16690;BME280;8458;52.220;9.884;2022-11-28T13:08:47;100419.63;;;8.89;70.27
16690;BME280;8458;52.220;9.884;2022-11-28T13:11:29;100414.09;;;8.89;69.91
16690;BME280;8458;52.220;9.884;2022-11-28T13:14:04;100415.47;;;8.86;69.90
16690;BME280;8458;52.220;9.884;2022-11-28T13:16:41;100414.03;;;8.84;69.82
16690;BME280;8458;52.220;9.884;2022-11-28T13:19:29;100410.13;;;8.79;70.29
16690;BME280;8458;52.220;9.884;2022-11-28T13:22:07;100409.56;;;8.77;70.43
16690;BME280;8458;52.220;9.884;2022-11-28T13:24:38;100410.38;;;8.78;70.07
16690;BME280;8458;52.220;9.884;2022-11-28T13:27:13;100414.03;;;8.84;70.60
16690;BME280;8458;52.220;9.884;2022-11-28T13:29:51;100413.00;;;8.90;69.98